< Typhoon 198424 1984 Season Typhoon 198426 >
Typhoon 198425 (BILL)
General InformationTrack Information on Google MapsDetailed Wind InformationList of All Images || Disaster Info.ResourceGoogle EarthGE AnimationAtom FeedGeoJSON
Detalied Best Track (Time Zone = UTC)
Year Month Day Hour Lat. Long. Pressure (hPa) Wind (kt) Class Image Chart
1984 11 8 00 14.0 154.0 1004 0 2 Image Chart
1984 11 8 06 14.5 153.5 1004 0 2 Image Chart
1984 11 8 12 14.2 153.5 1004 0 2 Image Chart
1984 11 8 18 14.0 153.5 1002 0 2 Image Chart
1984 11 9 00 13.8 153.7 1000 40 3 Image Chart
1984 11 9 06 14.2 153.9 998 40 3 Image Chart
1984 11 9 12 14.2 153.8 996 40 3 Image Chart
1984 11 9 18 14.3 153.9 994 40 3 Image Chart
1984 11 10 00 14.3 153.8 990 50 4 Image Chart
1984 11 10 06 14.3 153.7 990 50 4 Image Chart
1984 11 10 12 14.3 153.5 990 50 4 Image Chart
1984 11 10 18 14.3 153.3 990 50 4 Image Chart
1984 11 11 00 14.7 152.9 985 55 4 Image Chart
1984 11 11 06 14.6 152.2 980 60 4 Image Chart
1984 11 11 12 14.1 151.4 990 50 4 Image Chart
1984 11 11 18 13.7 150.4 990 50 4 Image Chart
1984 11 12 00 13.4 149.0 990 50 4 Image Chart
1984 11 12 06 13.3 147.5 985 55 4 Image Chart
1984 11 12 12 12.8 146.1 980 60 4 Image Chart
1984 11 12 18 13.0 144.1 975 65 5 Image Chart
1984 11 13 00 12.8 142.1 970 70 5 Image Chart
1984 11 13 06 12.8 140.3 970 70 5 Image Chart
1984 11 13 12 12.6 138.5 965 75 5 Image Chart
1984 11 13 18 12.7 136.8 950 80 5 Image Chart
1984 11 14 00 12.8 135.3 930 90 5 Image Chart
1984 11 14 06 13.1 133.8 920 95 5 Image Chart
1984 11 14 12 13.7 132.3 910 100 5 Image Chart
1984 11 14 18 14.3 130.9 910 100 5 Image Chart
1984 11 15 00 15.0 129.8 910 100 5 Image Chart
1984 11 15 06 15.8 128.8 930 100 5 Image Chart
1984 11 15 12 16.6 127.7 940 90 5 Image Chart
1984 11 15 18 16.9 127.2 940 100 5 Image Chart
1984 11 16 00 17.2 126.5 940 100 5 Image Chart
1984 11 16 06 17.4 125.8 940 100 5 Image Chart
1984 11 16 12 17.5 124.9 950 100 5 Image Chart
1984 11 16 18 17.7 124.2 950 100 5 Image Chart
1984 11 17 00 18.1 123.5 950 100 5 Image Chart
1984 11 17 06 18.8 123.0 935 100 5 Image Chart
1984 11 17 12 19.3 122.8 935 100 5 Image Chart
1984 11 17 18 19.9 122.7 945 100 5 Image Chart
1984 11 18 00 20.2 122.7 955 80 5 Image Chart
1984 11 18 06 20.3 122.9 960 70 5 Image Chart
1984 11 18 12 20.4 123.3 960 70 5 Image Chart
1984 11 18 18 20.2 123.4 970 65 5 Image Chart
1984 11 19 00 19.4 123.7 985 50 4 Image Chart
1984 11 19 06 18.0 124.5 990 45 3 Image Chart
1984 11 19 12 17.0 125.5 996 0 2 Image Chart
1984 11 19 18 16.3 126.4 1000 0 2 Image Chart
1984 11 20 00 15.6 127.2 1000 0 2 Image Chart
1984 11 20 06 15.1 127.6 1000 0 2 Image Chart
1984 11 20 12 15.0 128.0 1000 40 3 Image Chart
1984 11 20 18 15.0 128.6 1000 45 3 Image Chart
1984 11 21 00 14.5 129.1 998 45 3 Image Chart
1984 11 21 06 14.3 128.7 998 45 3 Image Chart
1984 11 21 12 14.2 128.4 998 45 3 Image Chart
1984 11 21 18 14.2 128.0 998 40 3 Image Chart
1984 11 22 00 14.2 127.5 998 40 3 Image Chart
1984 11 22 06 14.0 127.0 1002 0 2 Image Chart
1984 11 22 12 13.5 127.0 1002 0 2 Image Chart
1984 11 22 18 13.0 126.5 1004 0 2 Image Chart
1984 11 23 00 12.5 126.0 1006 0 2 Image Chart
1984 11 23 06 12.0 125.5 1006 0 2 Image Chart
Japan Meteorological Agency Best Track Data | Correction Date : 1992-10-21
< Typhoon 198424 1984 Season Typhoon 198426 >

Help